Time;durP1;ratioP1;P1;durP2;ratioP2;P2;SDS_P1;SDS_P2;PMS_P1;PMS_P2;Temp;Humidity;BMP_temperature;BMP_pressure;BME280_temperature;BME280_humidity;BME280_pressure;Samples;Min_cycle;Max_cycle;Signal;HPM_P1;HPM_P2
2023/10/03 00:00:32;;;;;;;31.10;18.80;;;14.20;52.50;;;;;;5034274;28;20533;-68
2023/10/03 00:02:59;;;;;;;33.20;18.30;;;14.10;53.10;;;;;;5029914;28;20458;-69
2023/10/03 00:05:30;;;;;;;29.77;18.50;;;14.10;53.20;;;;;;5039793;28;20217;-70
2023/10/03 00:07:57;;;;;;;28.13;15.73;;;14.00;53.80;;;;;;5040419;28;20436;-69
2023/10/03 00:10:23;;;;;;;27.67;18.33;;;14.00;53.50;;;;;;5058372;28;20457;-70
2023/10/03 00:12:51;;;;;;;36.47;20.63;;;14.00;54.70;;;;;;5056798;28;21041;-69
2023/10/03 00:15:21;;;;;;;31.17;19.77;;;13.90;54.80;;;;;;5059473;28;20243;-69
2023/10/03 00:17:47;;;;;;;36.70;19.03;;;14.00;56.70;;;;;;5059017;28;20425;-69
2023/10/03 00:20:16;;;;;;;29.70;17.47;;;13.90;56.60;;;;;;5059149;28;20431;-69
2023/10/03 00:22:42;;;;;;;28.73;19.50;;;13.90;58.50;;;;;;5059389;28;20463;-70
2023/10/03 00:25:17;;;;;;;35.60;20.70;;;13.90;58.50;;;;;;5058647;28;20473;-68
2023/10/03 00:27:46;;;;;;;29.50;18.33;;;14.00;57.60;;;;;;5050861;28;20436;-69
2023/10/03 00:30:26;;;;;;;30.93;19.40;;;13.90;58.70;;;;;;5055307;28;20463;-70
2023/10/03 00:32:52;;;;;;;28.30;18.20;;;13.80;59.60;;;;;;5038764;28;20433;-70
2023/10/03 00:35:20;;;;;;;31.20;18.90;;;13.80;61.30;;;;;;5042860;28;20442;-69
2023/10/03 00:37:46;;;;;;;27.93;16.90;;;13.80;61.80;;;;;;5039647;28;20435;-70
2023/10/03 00:42:49;;;;;;;26.73;16.20;;;13.70;54.60;;;;;;5058143;28;20455;-70
2023/10/03 00:45:21;;;;;;;36.63;19.17;;;13.70;54.70;;;;;;5040063;28;20429;-69
2023/10/03 00:47:50;;;;;;;26.03;16.60;;;13.60;56.80;;;;;;5057286;28;20429;-69
2023/10/03 00:50:19;;;;;;;24.83;15.57;;;13.60;55.10;;;;;;5058182;28;20507;-69
2023/10/03 00:53:09;;;;;;;36.00;18.10;;;13.70;57.20;;;;;;5058448;28;20907;-70
2023/10/03 00:55:39;;;;;;;36.03;17.70;;;13.40;55.70;;;;;;5057805;28;20833;-69
2023/10/03 01:00:37;;;;;;;32.10;17.13;;;13.50;56.10;;;;;;5056405;28;20952;-69
2023/10/03 01:03:04;;;;;;;32.97;17.00;;;13.50;56.70;;;;;;5051998;28;20456;-69
2023/10/03 01:05:30;;;;;;;24.07;14.87;;;13.50;54.60;;;;;;5052605;28;21004;-69
2023/10/03 01:07:55;;;;;;;23.80;14.23;;;13.40;54.40;;;;;;5053457;28;20474;-69
2023/10/03 01:10:21;;;;;;;27.80;15.37;;;13.40;54.40;;;;;;5056384;28;20212;-70
2023/10/03 01:12:49;;;;;;;35.23;17.17;;;13.40;54.40;;;;;;5056172;28;20217;-69
2023/10/03 01:15:16;;;;;;;27.73;17.80;;;13.40;54.40;;;;;;5057384;28;20184;-69
2023/10/03 01:17:46;;;;;;;30.43;16.80;;;13.40;54.40;;;;;;5057612;28;20427;-69
2023/10/03 01:20:17;;;;;;;31.57;18.37;;;13.30;56.00;;;;;;5057255;28;20520;-70
2023/10/03 01:22:48;;;;;;;21.43;13.63;;;13.30;53.20;;;;;;5056329;28;20441;-70
2023/10/03 01:25:15;;;;;;;24.33;15.33;;;13.20;56.70;;;;;;5036613;28;20906;-70
2023/10/03 01:27:41;;;;;;;27.50;15.10;;;13.20;54.70;;;;;;5054467;28;20425;-70
2023/10/03 01:30:08;;;;;;;24.67;13.30;;;13.20;59.30;;;;;;5053898;28;20977;-69
2023/10/03 01:32:38;;;;;;;27.20;15.00;;;13.10;59.90;;;;;;5035343;28;20200;-69
2023/10/03 01:35:08;;;;;;;26.80;15.57;;;13.20;59.50;;;;;;5053057;28;20419;-69
2023/10/03 01:37:34;;;;;;;24.70;14.60;;;13.20;59.00;;;;;;5053415;28;20417;-70
2023/10/03 01:39:59;;;;;;;22.33;13.50;;;13.20;59.20;;;;;;5053411;28;20495;-69
2023/10/03 01:42:25;;;;;;;21.67;13.87;;;13.20;58.20;;;;;;5053113;28;20224;-68
2023/10/03 01:44:50;;;;;;;23.60;12.33;;;13.10;58.60;;;;;;5055857;28;20190;-69
2023/10/03 01:47:16;;;;;;;24.60;14.97;;;13.10;57.60;;;;;;5056919;28;20190;-69
2023/10/03 01:49:42;;;;;;;26.00;13.60;;;13.00;58.30;;;;;;5057316;28;20220;-69
2023/10/03 01:52:08;;;;;;;24.53;14.67;;;13.00;58.60;;;;;;5057079;28;20171;-69
2023/10/03 01:54:34;;;;;;;29.13;16.00;;;13.10;57.00;;;;;;5040465;28;20502;-69
2023/10/03 01:57:00;;;;;;;22.60;13.53;;;13.10;51.10;;;;;;5057259;28;20644;-69
2023/10/03 01:59:26;;;;;;;29.53;15.43;;;13.00;50.90;;;;;;5039055;28;20498;-70
2023/10/03 02:01:52;;;;;;;25.33;14.33;;;12.90;53.90;;;;;;5057519;28;20500;-69
2023/10/03 02:04:17;;;;;;;31.13;15.40;;;12.90;53.90;;;;;;5056713;28;20211;-68
2023/10/03 02:06:44;;;;;;;33.97;17.00;;;13.00;54.10;;;;;;5057274;28;20184;-67
2023/10/03 02:09:10;;;;;;;29.57;17.17;;;13.00;55.80;;;;;;5057292;28;20196;-68
2023/10/03 02:11:37;;;;;;;28.23;16.50;;;13.00;55.60;;;;;;5054587;28;20450;-68
2023/10/03 02:14:07;;;;;;;30.10;16.53;;;13.00;58.60;;;;;;5064330;23;20842;-69
2023/10/03 02:16:36;;;;;;;32.50;14.37;;;12.90;63.10;;;;;;5050976;28;20450;-69
2023/10/03 02:19:01;;;;;;;31.47;17.00;;;12.90;63.30;;;;;;5050281;28;20437;-69
2023/10/03 02:21:27;;;;;;;24.57;14.77;;;12.90;64.70;;;;;;5050787;28;20509;-69
2023/10/03 02:23:52;;;;;;;27.07;16.10;;;12.90;61.80;;;;;;5051457;28;20713;-70
2023/10/03 02:26:20;;;;;;;23.30;14.03;;;12.90;66.00;;;;;;5054545;28;20586;-70
2023/10/03 02:28:45;;;;;;;26.80;14.67;;;12.80;64.30;;;;;;5053441;28;20351;-70
2023/10/03 02:31:11;;;;;;;22.20;14.03;;;12.80;63.20;;;;;;5054348;28;20429;-70
2023/10/03 02:33:43;;;;;;;25.83;16.27;;;12.80;63.70;;;;;;5054317;28;20274;-69
2023/10/03 02:36:10;;;;;;;28.20;13.87;;;12.70;67.50;;;;;;5054249;28;20230;-70
2023/10/03 02:38:36;;;;;;;24.63;15.37;;;12.80;68.00;;;;;;5054473;28;20441;-70
2023/10/03 02:41:03;;;;;;;23.33;14.23;;;12.80;66.10;;;;;;5053935;28;20423;-69
2023/10/03 02:43:30;;;;;;;27.90;14.53;;;12.80;67.00;;;;;;5052659;28;20527;-70
2023/10/03 02:45:56;;;;;;;36.47;17.50;;;12.80;68.10;;;;;;5053883;28;20434;-67
2023/10/03 02:48:22;;;;;;;29.70;15.17;;;12.80;69.30;;;;;;5054076;28;20460;-68
2023/10/03 02:50:50;;;;;;;25.73;15.10;;;12.90;60.90;;;;;;5052862;28;20202;-68
2023/10/03 02:53:19;;;;;;;23.00;13.17;;;12.90;59.90;;;;;;5052598;28;20268;-68
2023/10/03 02:55:54;;;;;;;28.33;13.67;;;12.80;59.50;;;;;;5053961;28;20412;-68
2023/10/03 02:58:20;;;;;;;23.67;14.90;;;12.80;58.70;;;;;;5054114;28;20409;-68
2023/10/03 03:00:54;;;;;;;25.47;16.07;;;12.80;59.00;;;;;;5054117;28;20491;-68
2023/10/03 03:03:20;;;;;;;26.57;15.37;;;12.80;59.20;;;;;;5053738;28;20433;-68
2023/10/03 03:05:49;;;;;;;22.23;13.53;;;12.80;58.70;;;;;;5053746;28;20436;-68
2023/10/03 03:10:49;;;;;;;28.70;15.10;;;12.80;58.30;;;;;;5053744;28;20461;-69
2023/10/03 03:13:15;;;;;;;25.87;16.40;;;12.80;59.80;;;;;;5053426;28;20449;-68
2023/10/03 03:15:51;;;;;;;18.90;12.83;;;12.80;59.20;;;;;;5053711;28;20478;-66
2023/10/03 03:18:20;;;;;;;28.07;15.90;;;12.80;60.00;;;;;;5053809;28;20172;-67
2023/10/03 03:20:50;;;;;;;19.40;14.93;;;12.80;58.90;;;;;;5052450;28;20443;-67
2023/10/03 03:23:16;;;;;;;28.03;13.60;;;12.90;58.80;;;;;;5053529;28;20447;-67
2023/10/03 03:25:42;;;;;;;23.30;13.10;;;12.80;58.00;;;;;;5052255;28;20512;-67
2023/10/03 03:28:15;;;;;;;21.63;13.20;;;12.80;59.10;;;;;;5053680;28;20414;-67
2023/10/03 03:30:54;;;;;;;26.10;16.23;;;12.70;60.10;;;;;;5053448;28;20977;-67
2023/10/03 03:33:21;;;;;;;24.90;15.07;;;12.70;62.60;;;;;;5053121;28;20499;-68
2023/10/03 03:35:47;;;;;;;27.23;14.50;;;12.80;60.40;;;;;;5052344;28;20409;-68
2023/10/03 03:38:18;;;;;;;24.57;14.83;;;12.80;60.00;;;;;;5053319;28;20406;-68
2023/10/03 03:40:49;;;;;;;22.30;13.90;;;12.80;60.40;;;;;;5053410;28;20443;-68
2023/10/03 03:43:16;;;;;;;20.37;14.80;;;12.90;58.80;;;;;;5053017;28;20437;-67
2023/10/03 03:45:43;;;;;;;30.57;14.90;;;12.90;60.90;;;;;;5052988;28;20432;-67
2023/10/03 03:48:09;;;;;;;24.20;15.23;;;12.90;59.50;;;;;;5053301;28;20924;-67
2023/10/03 03:50:35;;;;;;;25.40;14.90;;;12.90;59.20;;;;;;5053055;28;20988;-67
2023/10/03 03:53:03;;;;;;;29.17;14.67;;;13.00;59.10;;;;;;5052835;28;20432;-66
2023/10/03 03:55:34;;;;;;;25.43;14.80;;;13.00;58.90;;;;;;5052852;28;20409;-67
2023/10/03 03:58:02;;;;;;;20.90;12.83;;;13.00;58.60;;;;;;5051695;28;20411;-67
2023/10/03 04:00:32;;;;;;;25.17;13.40;;;13.00;59.60;;;;;;5053296;28;21042;-69
2023/10/03 04:02:59;;;;;;;22.00;15.57;;;13.00;59.50;;;;;;5052469;28;20445;-68
2023/10/03 04:05:25;;;;;;;30.73;15.37;;;13.00;59.80;;;;;;5052555;28;20423;-69
2023/10/03 04:07:51;;;;;;;31.70;15.60;;;13.00;60.20;;;;;;5052709;28;20440;-67
2023/10/03 04:10:17;;;;;;;27.00;16.40;;;13.10;59.70;;;;;;5052766;28;20221;-67
2023/10/03 04:12:43;;;;;;;25.60;14.10;;;13.10;58.70;;;;;;5052114;28;20538;-67
2023/10/03 04:15:15;;;;;;;25.43;13.97;;;13.20;57.20;;;;;;5051536;28;20275;-66
2023/10/03 04:17:41;;;;;;;20.87;14.07;;;13.30;56.20;;;;;;5052725;28;20829;-67
2023/10/03 04:20:19;;;;;;;22.53;13.67;;;13.30;56.60;;;;;;5052568;28;20783;-67
2023/10/03 04:22:48;;;;;;;25.70;14.70;;;13.30;55.00;;;;;;5052379;28;20464;-67
2023/10/03 04:25:14;;;;;;;20.90;12.40;;;13.30;54.30;;;;;;5050954;28;20421;-67
2023/10/03 04:27:41;;;;;;;21.27;12.60;;;13.30;54.40;;;;;;5052212;28;20438;-68
2023/10/03 04:30:13;;;;;;;19.67;11.60;;;13.30;54.50;;;;;;5051117;28;20465;-67
2023/10/03 04:32:40;;;;;;;18.87;11.97;;;13.40;54.40;;;;;;5052070;28;20446;-67
2023/10/03 04:35:06;;;;;;;20.00;11.80;;;13.40;53.30;;;;;;5050859;28;20818;-67
2023/10/03 04:37:32;;;;;;;19.20;11.83;;;13.40;52.30;;;;;;5051009;28;20416;-67
2023/10/03 04:39:57;;;;;;;16.90;10.50;;;13.40;52.60;;;;;;5052130;28;20424;-67
2023/10/03 04:42:23;;;;;;;16.63;12.07;;;13.50;52.70;;;;;;5051808;28;20210;-67
2023/10/03 04:44:49;;;;;;;22.87;12.30;;;13.50;52.10;;;;;;5052089;28;20271;-67
2023/10/03 04:47:14;;;;;;;21.23;11.27;;;13.60;51.30;;;;;;5051992;28;20178;-67
2023/10/03 04:49:40;;;;;;;17.27;10.40;;;13.70;50.50;;;;;;5050642;28;20206;-67
2023/10/03 04:52:07;;;;;;;15.23;9.20;;;13.80;48.80;;;;;;5051809;28;20183;-67
2023/10/03 04:54:33;;;;;;;17.97;9.57;;;13.80;47.90;;;;;;5051976;28;20191;-67
2023/10/03 04:56:59;;;;;;;18.50;10.00;;;13.90;48.10;;;;;;5050689;28;20434;-68
2023/10/03 04:59:25;;;;;;;17.30;11.13;;;14.00;46.60;;;;;;5052112;28;20414;-68
2023/10/03 05:01:50;;;;;;;19.50;12.37;;;14.00;46.30;;;;;;5051703;28;20194;-68
2023/10/03 05:04:16;;;;;;;21.63;10.27;;;14.10;46.10;;;;;;5051701;28;20209;-69
2023/10/03 05:06:43;;;;;;;19.80;12.87;;;14.10;46.00;;;;;;5051807;28;20185;-68
2023/10/03 05:09:09;;;;;;;19.80;11.87;;;14.10;45.60;;;;;;5050505;28;20220;-69
2023/10/03 05:11:34;;;;;;;27.10;11.97;;;14.20;45.00;;;;;;5051622;28;20425;-69
2023/10/03 05:14:00;;;;;;;22.70;10.00;;;14.20;43.20;;;;;;5051531;28;20865;-68
2023/10/03 05:16:26;;;;;;;22.50;12.00;;;14.30;42.80;;;;;;5051848;28;20182;-69
2023/10/03 05:18:51;;;;;;;16.67;10.10;;;14.30;41.70;;;;;;5051229;28;20489;-69
2023/10/03 05:21:17;;;;;;;16.07;9.20;;;14.30;41.30;;;;;;5051472;28;20182;-69
2023/10/03 05:23:43;;;;;;;21.17;11.13;;;14.40;39.80;;;;;;5050081;28;20300;-69
2023/10/03 05:26:09;;;;;;;18.57;10.07;;;14.50;39.40;;;;;;5050125;28;20431;-68
2023/10/03 05:28:38;;;;;;;17.20;9.63;;;14.60;39.30;;;;;;5051645;28;20244;-68
2023/10/03 05:31:04;;;;;;;20.60;11.40;;;14.60;37.40;;;;;;5051474;28;20247;-69
2023/10/03 05:33:30;;;;;;;11.60;8.53;;;14.60;37.50;;;;;;5051163;28;20476;-69
2023/10/03 05:35:56;;;;;;;14.60;9.43;;;14.60;36.90;;;;;;5051384;28;20174;-69
2023/10/03 05:38:23;;;;;;;16.80;10.23;;;14.70;36.90;;;;;;5051523;28;20178;-68
2023/10/03 05:40:48;;;;;;;16.30;8.40;;;14.70;35.50;;;;;;5051466;28;20420;-66
2023/10/03 05:43:14;;;;;;;17.63;10.40;;;14.60;36.60;;;;;;5050995;28;20455;-69
2023/10/03 05:45:39;;;;;;;15.87;9.97;;;14.60;36.10;;;;;;5051408;28;20186;-69
2023/10/03 05:48:05;;;;;;;16.13;10.07;;;14.60;35.90;;;;;;5051174;28;20642;-69
2023/10/03 05:50:32;;;;;;;17.57;9.67;;;14.70;35.20;;;;;;5051251;28;20216;-69
2023/10/03 05:52:59;;;;;;;13.93;8.57;;;14.80;34.70;;;;;;5051001;28;20294;-69
2023/10/03 05:55:25;;;;;;;16.63;8.97;;;14.80;34.40;;;;;;5038916;28;20484;-70
2023/10/03 05:57:51;;;;;;;13.30;8.70;;;14.90;33.50;;;;;;5030153;28;20418;-69
2023/10/03 06:00:17;;;;;;;14.83;9.47;;;15.10;32.70;;;;;;5034409;28;20217;-69
2023/10/03 06:02:48;;;;;;;12.63;9.03;;;15.10;31.60;;;;;;5045586;28;20210;-69
2023/10/03 06:05:15;;;;;;;17.43;9.80;;;15.20;30.60;;;;;;5054839;28;20458;-69
2023/10/03 06:07:43;;;;;;;12.37;7.60;;;15.30;29.90;;;;;;5053700;28;20843;-69
2023/10/03 06:10:15;;;;;;;9.93;7.50;;;15.50;28.90;;;;;;5055050;28;20856;-69
2023/10/03 06:12:41;;;;;;;16.03;8.63;;;15.60;27.90;;;;;;5053023;28;20468;-67
2023/10/03 06:15:07;;;;;;;17.93;8.67;;;15.70;26.50;;;;;;5054786;28;20462;-67
2023/10/03 06:17:33;;;;;;;13.80;7.23;;;15.80;27.00;;;;;;5054799;28;20170;-69
2023/10/03 06:19:59;;;;;;;12.83;7.90;;;15.90;26.60;;;;;;5054822;28;20482;-67
2023/10/03 06:22:24;;;;;;;12.23;7.60;;;15.90;25.80;;;;;;5054132;28;20851;-67
2023/10/03 06:24:53;;;;;;;11.47;8.37;;;15.90;25.70;;;;;;5047441;28;20190;-69
2023/10/03 06:27:18;;;;;;;11.30;7.83;;;15.90;25.50;;;;;;5054753;28;20201;-68
2023/10/03 06:29:47;;;;;;;11.30;7.63;;;16.00;25.70;;;;;;5054616;28;20842;-69
2023/10/03 06:32:13;;;;;;;17.33;8.73;;;16.10;25.50;;;;;;5054460;28;20206;-69
2023/10/03 06:34:38;;;;;;;12.03;8.57;;;16.20;25.00;;;;;;5054188;28;20494;-71
2023/10/03 06:37:04;;;;;;;10.17;7.70;;;16.10;25.10;;;;;;5054606;28;20178;-68
2023/10/03 06:39:30;;;;;;;17.27;6.53;;;16.20;24.40;;;;;;5053078;28;20182;-69
2023/10/03 06:41:56;;;;;;;12.73;7.10;;;16.40;23.40;;;;;;5053516;28;20417;-69
2023/10/03 06:44:22;;;;;;;13.60;8.17;;;16.50;22.90;;;;;;5054214;28;20551;-70
2023/10/03 06:46:48;;;;;;;13.00;8.13;;;16.60;22.90;;;;;;5054587;28;20205;-68
2023/10/03 06:49:17;;;;;;;10.07;6.63;;;16.70;21.60;;;;;;5054365;28;20456;-67
2023/10/03 06:51:43;;;;;;;11.33;8.23;;;16.90;20.90;;;;;;5053009;28;20178;-67
2023/10/03 06:54:09;;;;;;;9.57;6.40;;;17.00;20.10;;;;;;5053053;28;20444;-67
2023/10/03 06:56:34;;;;;;;11.00;7.10;;;17.20;19.40;;;;;;5054450;28;20405;-67
2023/10/03 06:59:00;;;;;;;17.67;8.30;;;17.40;17.80;;;;;;5053691;28;20206;-68
2023/10/03 07:01:26;;;;;;;11.50;7.57;;;17.50;17.70;;;;;;5054254;28;20178;-67
2023/10/03 07:03:56;;;;;;;12.63;7.97;;;17.70;17.60;;;;;;5053807;28;20451;-68
2023/10/03 07:06:22;;;;;;;17.03;8.23;;;17.80;16.70;;;;;;5053722;28;20171;-70
2023/10/03 07:08:48;;;;;;;11.23;7.60;;;18.00;16.00;;;;;;5053879;28;20969;-68
2023/10/03 07:11:16;;;;;;;12.00;7.23;;;18.20;15.40;;;;;;5052392;28;20461;-67
2023/10/03 07:13:45;;;;;;;10.60;7.73;;;18.30;15.00;;;;;;5053997;28;20453;-68
2023/10/03 07:16:11;;;;;;;10.80;6.90;;;18.40;13.00;;;;;;5053773;28;20424;-68
2023/10/03 07:18:37;;;;;;;10.93;6.53;;;18.60;11.30;;;;;;5052308;28;20508;-67
2023/10/03 07:21:06;;;;;;;10.20;6.03;;;18.90;11.50;;;;;;5053699;28;20460;-68
2023/10/03 07:23:31;;;;;;;11.23;7.07;;;19.00;11.40;;;;;;5053372;28;20519;-68
2023/10/03 07:25:57;;;;;;;11.60;6.30;;;19.10;12.00;;;;;;5053109;28;20515;-68
2023/10/03 07:28:23;;;;;;;11.40;6.87;;;19.20;11.10;;;;;;5053459;28;20307;-69
2023/10/03 07:30:49;;;;;;;9.50;6.50;;;19.40;11.70;;;;;;5052018;28;20468;-68
2023/10/03 07:33:15;;;;;;;9.97;7.30;;;19.50;11.70;;;;;;5053691;28;20553;-68
2023/10/03 07:35:41;;;;;;;7.43;5.40;;;19.70;10.70;;;;;;5051653;28;20433;-68
2023/10/03 07:38:10;;;;;;;7.23;5.50;;;19.90;9.40;;;;;;5051754;28;20176;-68
2023/10/03 07:40:39;;;;;;;9.90;6.77;;;20.00;9.00;;;;;;5053315;28;20405;-68
2023/10/03 07:43:12;;;;;;;9.00;5.53;;;20.10;8.50;;;;;;5051708;28;20444;-68
2023/10/03 07:45:38;;;;;;;7.33;6.00;;;20.30;7.80;;;;;;5051671;28;20449;-68
2023/10/03 07:48:05;;;;;;;10.23;7.63;;;20.40;5.30;;;;;;5052943;28;20417;-68
2023/10/03 07:50:33;;;;;;;6.40;5.80;;;20.60;7.40;;;;;;5053142;28;20460;-68
2023/10/03 07:52:59;;;;;;;8.20;6.17;;;20.70;5.20;;;;;;5052780;28;20911;-68
2023/10/03 07:55:25;;;;;;;7.03;5.43;;;20.90;5.00;;;;;;5052484;28;20424;-68
2023/10/03 07:57:54;;;;;;;7.53;5.07;;;21.00;1.00;;;;;;5052936;28;20209;-68
2023/10/03 08:00:20;;;;;;;9.50;6.03;;;21.20;3.80;;;;;;5053137;28;20448;-68
2023/10/03 08:02:49;;;;;;;6.90;4.80;;;21.60;2.00;;;;;;5052635;28;20444;-69
2023/10/03 08:05:16;;;;;;;10.70;5.90;;;22.00;1.00;;;;;;5052468;28;20429;-68
2023/10/03 08:07:47;;;;;;;6.97;5.67;;;22.20;1.00;;;;;;5052949;28;20817;-68
2023/10/03 08:10:16;;;;;;;9.50;5.20;;;22.30;1.00;;;;;;5052726;28;20870;-69
2023/10/03 08:12:42;;;;;;;7.57;5.27;;;22.90;1.00;;;;;;5052754;28;20456;-69
2023/10/03 08:15:17;;;;;;;11.23;5.53;;;22.90;1.00;;;;;;5052167;28;20429;-68
2023/10/03 08:17:48;;;;;;;7.03;4.93;;;23.00;1.00;;;;;;5052765;28;20470;-68
2023/10/03 08:20:18;;;;;;;6.70;5.80;;;23.50;1.00;;;;;;5052716;28;20501;-68
2023/10/03 08:22:53;;;;;;;8.63;5.60;;;23.60;1.00;;;;;;5050960;28;20452;-68
2023/10/03 08:25:20;;;;;;;6.53;5.63;;;23.50;1.00;;;;;;5052695;28;20791;-67
2023/10/03 08:27:46;;;;;;;8.00;5.43;;;23.40;1.00;;;;;;5053090;28;20936;-72
2023/10/03 08:30:27;;;;;;;6.10;5.40;;;23.40;1.00;;;;;;5052570;28;20515;-68
2023/10/03 08:33:00;;;;;;;11.40;6.10;;;23.50;1.00;;;;;;5032464;28;20452;-66
2023/10/03 08:35:35;;;;;;;7.10;5.80;;;23.70;1.00;;;;;;5036563;28;20911;-67
2023/10/03 08:38:09;;;;;;;5.30;4.50;;;23.80;1.00;;;;;;5052631;28;20413;-67
2023/10/03 08:40:40;;;;;;;9.40;5.80;;;23.90;1.00;;;;;;5052544;28;20463;-66
2023/10/03 08:43:08;;;;;;;5.50;5.10;;;24.00;1.00;;;;;;5052708;28;20429;-66
2023/10/03 08:45:39;;;;;;;5.83;4.83;;;24.10;1.00;;;;;;5050615;28;20425;-65
2023/10/03 08:48:08;;;;;;;5.90;5.20;;;24.30;1.00;;;;;;5052527;28;20440;-66
2023/10/03 08:50:46;;;;;;;6.53;5.20;;;24.40;1.00;;;;;;5050702;28;20468;-66
2023/10/03 08:53:12;;;;;;;6.50;5.43;;;24.50;1.00;;;;;;5051958;28;20973;-65
2023/10/03 08:55:46;;;;;;;8.50;5.27;;;24.50;1.00;;;;;;5051998;28;20770;-66
2023/10/03 08:58:15;;;;;;;5.30;4.80;;;24.70;1.00;;;;;;5051996;28;20893;-66
2023/10/03 09:00:46;;;;;;;6.90;4.70;;;24.70;1.00;;;;;;5050699;28;20417;-65
2023/10/03 09:03:14;;;;;;;8.60;5.60;;;24.80;1.00;;;;;;5050650;28;20441;-66
2023/10/03 09:05:40;;;;;;;5.10;4.70;;;24.80;1.00;;;;;;5052188;28;20412;-66
2023/10/03 09:08:11;;;;;;;6.03;5.40;;;24.70;1.00;;;;;;5052070;28;20780;-66
2023/10/03 09:10:57;;;;;;;7.40;5.10;;;24.80;1.00;;;;;;5052170;28;20456;-65
2023/10/03 09:13:27;;;;;;;6.27;5.37;;;25.00;1.00;;;;;;5052158;28;20445;-66
2023/10/03 09:16:02;;;;;;;7.07;5.50;;;25.10;1.00;;;;;;5050973;28;20417;-70
2023/10/03 09:18:40;;;;;;;5.87;5.30;;;25.20;1.00;;;;;;5052350;28;20419;-66
2023/10/03 09:21:06;;;;;;;7.97;6.33;;;25.20;1.00;;;;;;5051771;28;20420;-66
2023/10/03 09:23:40;;;;;;;6.47;5.80;;;25.30;1.00;;;;;;5051650;28;21030;-66
2023/10/03 09:26:06;;;;;;;6.50;5.97;;;25.40;1.00;;;;;;5050720;28;20171;-66
2023/10/03 09:28:36;;;;;;;5.77;5.00;;;25.50;1.00;;;;;;5052015;28;20783;-66
2023/10/03 09:31:08;;;;;;;6.87;4.90;;;25.60;1.00;;;;;;5051750;28;20967;-66
2023/10/03 09:33:38;;;;;;;7.40;5.40;;;25.80;1.00;;;;;;5052008;28;20425;-66
2023/10/03 09:36:04;;;;;;;5.80;5.20;;;26.00;1.00;;;;;;5055951;28;20413;-67
2023/10/03 09:38:42;;;;;;;6.10;5.00;;;26.10;1.00;;;;;;5055965;28;20454;-67
2023/10/03 09:41:09;;;;;;;5.93;5.37;;;26.40;1.00;;;;;;5055802;28;20409;-67
2023/10/03 09:43:35;;;;;;;7.20;6.00;;;26.50;1.00;;;;;;5055620;28;20527;-67
2023/10/03 09:46:01;;;;;;;7.10;5.73;;;26.70;1.00;;;;;;5055470;28;20835;-66
2023/10/03 09:48:27;;;;;;;14.10;5.73;;;26.90;1.00;;;;;;5055578;28;20444;-67
2023/10/03 09:51:05;;;;;;;7.70;6.07;;;26.90;1.00;;;;;;5055425;28;20592;-67
2023/10/03 09:53:32;;;;;;;6.57;5.87;;;26.90;1.00;;;;;;5055322;28;20213;-66
2023/10/03 09:56:00;;;;;;;7.00;5.70;;;27.10;1.00;;;;;;5055186;28;20405;-67
2023/10/03 09:58:31;;;;;;;7.03;5.40;;;27.00;1.00;;;;;;5055335;28;20405;-67
2023/10/03 10:00:58;;;;;;;8.17;6.97;;;27.00;1.00;;;;;;5055265;28;20417;-65
2023/10/03 10:03:46;;;;;;;6.37;5.53;;;27.00;1.00;;;;;;5055138;28;20433;-67
2023/10/03 10:06:38;;;;;;;6.53;5.40;;;26.90;1.00;;;;;;5055898;28;20413;-66
2023/10/03 10:09:13;;;;;;;35.93;6.27;;;27.10;1.00;;;;;;5055076;28;20785;-65
2023/10/03 10:12:11;;;;;;;5.90;5.30;;;26.90;1.00;;;;;;5055236;28;20412;-66
2023/10/03 10:15:13;;;;;;;6.50;5.37;;;27.10;1.00;;;;;;5050581;28;20456;-66
2023/10/03 10:17:52;;;;;;;6.93;6.33;;;27.30;1.00;;;;;;5055252;28;20772;-66
2023/10/03 10:20:37;;;;;;;7.47;5.97;;;27.50;1.00;;;;;;5054997;28;20420;-65
2023/10/03 10:23:04;;;;;;;6.60;5.87;;;27.60;1.00;;;;;;5053811;28;20429;-65
2023/10/03 10:25:37;;;;;;;7.10;5.97;;;27.80;1.00;;;;;;5054449;28;20409;-66
2023/10/03 10:28:06;;;;;;;7.03;6.10;;;28.00;1.00;;;;;;5053534;28;20442;-65
2023/10/03 10:30:32;;;;;;;10.40;6.97;;;28.10;1.00;;;;;;5054605;28;20456;-65
2023/10/03 10:33:20;;;;;;;6.97;6.10;;;28.20;1.00;;;;;;5054664;28;20446;-65
2023/10/03 10:35:54;;;;;;;6.50;5.90;;;28.20;1.00;;;;;;5053240;28;20412;-66
2023/10/03 10:38:32;;;;;;;8.57;6.67;;;28.60;1.00;;;;;;5054617;28;20421;-65
2023/10/03 10:41:22;;;;;;;7.60;6.90;;;28.70;1.00;;;;;;5054468;28;20408;-65
2023/10/03 10:44:07;;;;;;;6.67;5.97;;;28.70;1.00;;;;;;5053043;28;20448;-65
2023/10/03 10:46:46;;;;;;;7.60;6.80;;;28.90;1.00;;;;;;5054148;28;20888;-65
2023/10/03 10:49:40;;;;;;;6.80;6.10;;;29.00;1.00;;;;;;5054381;28;20504;-65
2023/10/03 10:52:09;;;;;;;5.87;5.27;;;28.90;1.00;;;;;;5054423;28;20423;-65
2023/10/03 10:54:39;;;;;;;5.80;5.10;;;28.60;1.00;;;;;;5054231;28;20951;-66
2023/10/03 10:57:06;;;;;;;7.10;6.40;;;28.50;1.00;;;;;;5054323;28;20766;-66
2023/10/03 10:59:36;;;;;;;8.77;5.53;;;28.40;1.00;;;;;;5052961;28;20429;-66
2023/10/03 11:02:04;;;;;;;6.20;5.23;;;28.30;1.00;;;;;;5054238;28;20471;-66
2023/10/03 11:04:33;;;;;;;7.77;6.37;;;28.50;1.00;;;;;;5054138;28;20441;-67
2023/10/03 11:06:58;;;;;;;6.80;6.10;;;28.40;1.00;;;;;;5054022;28;20421;-66
2023/10/03 11:09:25;;;;;;;7.57;6.17;;;28.40;1.00;;;;;;5053766;28;21151;-66
2023/10/03 11:11:51;;;;;;;9.10;8.30;;;28.60;1.00;;;;;;5054223;28;20213;-67
2023/10/03 11:14:29;;;;;;;7.50;6.53;;;28.60;1.00;;;;;;5052439;28;20818;-66
2023/10/03 11:16:57;;;;;;;7.77;6.50;;;28.70;1.00;;;;;;5054240;28;20258;-66
2023/10/03 11:19:23;;;;;;;11.50;7.93;;;28.80;1.00;;;;;;5054159;28;20792;-66
2023/10/03 11:21:49;;;;;;;6.87;6.37;;;28.60;1.00;;;;;;5054128;28;20443;-66
2023/10/03 11:24:16;;;;;;;7.27;6.53;;;28.40;1.00;;;;;;5053528;28;20445;-65
2023/10/03 11:26:49;;;;;;;7.90;6.60;;;28.20;1.00;;;;;;5054170;28;20316;-66
2023/10/03 11:29:33;;;;;;;9.40;6.40;;;28.30;1.00;;;;;;5053854;28;20452;-66
2023/10/03 11:32:00;;;;;;;6.40;5.80;;;28.10;1.00;;;;;;5053868;28;20405;-67
2023/10/03 11:34:32;;;;;;;7.50;6.80;;;28.20;1.00;;;;;;5053503;28;20486;-66
2023/10/03 11:36:58;;;;;;;7.67;6.17;;;28.30;1.00;;;;;;5054596;28;20797;-67
2023/10/03 11:39:26;;;;;;;7.77;6.03;;;28.60;1.00;;;;;;5054654;28;20424;-67
2023/10/03 11:41:52;;;;;;;8.57;6.40;;;28.70;1.00;;;;;;5036412;28;20416;-66
2023/10/03 11:44:21;;;;;;;8.43;6.20;;;28.90;1.00;;;;;;5053178;28;20436;-66
2023/10/03 11:46:48;;;;;;;8.23;5.87;;;29.30;1.00;;;;;;5053066;28;20183;-66
2023/10/03 11:49:15;;;;;;;6.93;6.23;;;29.30;1.00;;;;;;5053060;28;20405;-66
2023/10/03 11:51:43;;;;;;;7.20;6.50;;;29.00;1.00;;;;;;5053444;28;20413;-66
2023/10/03 11:54:14;;;;;;;8.70;5.87;;;28.60;1.00;;;;;;5053388;28;20471;-67
2023/10/03 11:56:44;;;;;;;7.03;5.47;;;28.30;1.00;;;;;;5052747;28;20424;-66
2023/10/03 11:59:17;;;;;;;8.10;6.57;;;28.10;1.00;;;;;;5053508;28;20409;-67
2023/10/03 12:01:56;;;;;;;6.20;5.60;;;28.30;1.00;;;;;;5053721;28;20402;-66
2023/10/03 12:04:23;;;;;;;7.90;6.60;;;28.30;1.00;;;;;;5053026;28;20433;-67
2023/10/03 12:06:49;;;;;;;8.77;6.77;;;28.30;1.00;;;;;;5053404;28;20409;-66
2023/10/03 12:09:17;;;;;;;7.13;6.27;;;28.60;1.00;;;;;;5052790;28;20488;-66
2023/10/03 12:11:43;;;;;;;8.20;6.50;;;28.80;1.00;;;;;;5052781;28;20174;-65
2023/10/03 12:14:11;;;;;;;7.10;5.77;;;28.50;1.00;;;;;;5051154;28;20455;-68
2023/10/03 12:16:38;;;;;;;6.93;5.90;;;28.30;1.00;;;;;;5068487;28;20574;-66
2023/10/03 12:19:04;;;;;;;10.80;6.83;;;28.20;1.00;;;;;;5053047;28;20421;-66
2023/10/03 12:21:30;;;;;;;7.57;6.60;;;28.10;1.00;;;;;;5052800;28;20424;-68
2023/10/03 12:23:58;;;;;;;9.73;6.93;;;27.90;1.00;;;;;;5052532;28;20836;-66
2023/10/03 12:26:24;;;;;;;8.83;6.53;;;28.20;1.00;;;;;;5052424;28;20173;-66
2023/10/03 12:28:52;;;;;;;16.17;6.30;;;28.10;1.00;;;;;;5052751;28;20531;-66
2023/10/03 12:31:25;;;;;;;6.77;6.17;;;28.20;1.00;;;;;;5052499;28;20456;-65
2023/10/03 12:33:51;;;;;;;7.80;6.47;;;28.10;1.00;;;;;;5052431;28;20425;-65
2023/10/03 12:36:17;;;;;;;8.77;6.53;;;27.80;1.00;;;;;;5052306;28;20523;-66
2023/10/03 12:38:42;;;;;;;10.50;7.40;;;28.00;1.00;;;;;;5052484;28;20409;-66
2023/10/03 12:41:09;;;;;;;9.07;7.03;;;27.70;1.00;;;;;;5052355;28;20178;-66
2023/10/03 12:43:37;;;;;;;7.07;5.80;;;27.70;1.00;;;;;;5052437;28;20621;-66
2023/10/03 12:46:04;;;;;;;9.07;6.73;;;27.50;1.00;;;;;;5052255;28;20448;-66
2023/10/03 12:48:30;;;;;;;10.60;6.33;;;27.10;1.00;;;;;;5052170;28;20494;-66
2023/10/03 12:50:56;;;;;;;10.47;6.53;;;26.90;1.00;;;;;;5052019;28;20798;-67
2023/10/03 12:53:23;;;;;;;7.50;6.70;;;26.80;1.00;;;;;;5051870;28;20520;-67
2023/10/03 12:55:49;;;;;;;11.77;6.20;;;26.70;1.00;;;;;;5051922;28;20177;-67